Time;durP1;ratioP1;P1;durP2;ratioP2;P2;SDS_P1;SDS_P2;PMS_P1;PMS_P2;Temp;Humidity;BMP_temperature;BMP_pressure;BME280_temperature;BME280_humidity;BME280_pressure;Samples;Min_cycle;Max_cycle;Signal;HPM_P1;HPM_P2
2023/07/17 00:00:20;;;;;;;6.40;3.15;;;;;;;;;;4957115;28;20064;-82
2023/07/17 00:02:46;;;;;;;6.60;2.78;;;;;;;;;;4986699;28;21097;-83
2023/07/17 00:05:12;;;;;;;4.93;2.45;;;;;;;;;;4981774;28;20033;-83
2023/07/17 00:07:39;;;;;;;3.70;2.83;;;;;;;;;;4992578;28;20542;-82
2023/07/17 00:10:05;;;;;;;5.30;2.90;;;;;;;;;;4992283;28;20048;-82
2023/07/17 00:12:31;;;;;;;3.03;2.70;;;;;;;;;;4975083;28;20195;-82
2023/07/17 00:14:57;;;;;;;5.30;2.80;;;;;;;;;;4981503;28;20077;-83
2023/07/17 00:17:23;;;;;;;3.90;2.47;;;;;;;;;;4983665;28;20458;-83
2023/07/17 00:19:53;;;;;;;5.07;2.63;;;;;;;;;;4977960;28;20060;-82
2023/07/17 00:22:20;;;;;;;3.53;2.63;;;;;;;;;;4988420;28;20474;-83
2023/07/17 00:24:46;;;;;;;4.03;2.63;;;;;;;;;;5011036;28;20045;-82
2023/07/17 00:27:12;;;;;;;4.45;2.55;;;;;;;;;;4989486;28;20052;-82
2023/07/17 00:29:38;;;;;;;4.13;2.50;;;;;;;;;;5014167;28;20037;-82
2023/07/17 00:32:04;;;;;;;6.68;2.60;;;;;;;;;;4994805;28;20254;-82
2023/07/17 00:34:33;;;;;;;3.65;2.55;;;;;;;;;;4993632;28;20063;-82
2023/07/17 00:36:59;;;;;;;4.53;2.85;;;;;;;;;;4993796;28;20037;-82
2023/07/17 00:39:25;;;;;;;4.82;2.33;;;;;;;;;;5026792;28;20127;-82
2023/07/17 00:41:51;;;;;;;5.25;2.50;;;;;;;;;;4994480;28;20052;-82
2023/07/17 00:44:27;;;;;;;3.17;2.42;;;;;;;;;;4966508;28;20037;-82
2023/07/17 00:46:53;;;;;;;4.55;2.42;;;;;;;;;;4994846;28;20037;-83
2023/07/17 00:49:19;;;;;;;6.40;2.40;;;;;;;;;;5006195;28;20099;-83
2023/07/17 00:51:46;;;;;;;6.78;2.67;;;;;;;;;;4994303;28;20045;-82
2023/07/17 00:54:14;;;;;;;4.90;2.15;;;;;;;;;;4990366;28;20073;-82
2023/07/17 00:56:43;;;;;;;4.53;2.20;;;;;;;;;;4995631;28;20101;-82
2023/07/17 00:59:09;;;;;;;6.88;2.47;;;;;;;;;;4972487;28;20385;-83
2023/07/17 01:01:35;;;;;;;4.43;1.90;;;;;;;;;;4983223;28;20041;-83
2023/07/17 01:04:02;;;;;;;4.10;1.80;;;;;;;;;;5025589;28;20096;-82
2023/07/17 01:06:28;;;;;;;5.13;1.90;;;;;;;;;;4987171;28;20047;-83
2023/07/17 01:08:54;;;;;;;5.22;1.90;;;;;;;;;;4996896;28;20394;-83
2023/07/17 01:11:20;;;;;;;8.75;2.75;;;;;;;;;;5018600;28;20548;-83
2023/07/17 01:13:46;;;;;;;3.88;1.80;;;;;;;;;;5004899;28;20045;-83
2023/07/17 01:16:13;;;;;;;5.28;1.88;;;;;;;;;;4980256;28;20079;-83
2023/07/17 01:18:39;;;;;;;6.97;2.20;;;;;;;;;;5000207;28;20053;-83
2023/07/17 01:21:05;;;;;;;3.50;2.15;;;;;;;;;;5022999;28;20041;-83
2023/07/17 01:23:32;;;;;;;5.75;2.10;;;;;;;;;;4998618;28;20481;-83
2023/07/17 01:25:58;;;;;;;4.85;2.47;;;;;;;;;;5013175;28;20052;-83
2023/07/17 01:28:24;;;;;;;4.78;2.00;;;;;;;;;;5013509;28;20060;-83
2023/07/17 01:30:50;;;;;;;4.95;2.13;;;;;;;;;;5032081;28;20391;-83
2023/07/17 01:33:16;;;;;;;4.75;2.10;;;;;;;;;;4993367;28;21073;-83
2023/07/17 01:35:43;;;;;;;6.30;2.33;;;;;;;;;;4979668;28;20559;-83
2023/07/17 01:38:09;;;;;;;4.85;2.42;;;;;;;;;;4974594;28;20045;-82
2023/07/17 01:40:35;;;;;;;4.88;2.40;;;;;;;;;;5014587;28;20033;-83
2023/07/17 01:43:02;;;;;;;6.55;2.22;;;;;;;;;;4977160;28;20029;-83
2023/07/17 01:45:28;;;;;;;6.40;2.40;;;;;;;;;;4999115;28;20139;-83
2023/07/17 01:47:54;;;;;;;5.80;2.08;;;;;;;;;;4997116;28;20115;-83
2023/07/17 01:50:20;;;;;;;5.53;2.00;;;;;;;;;;5004405;28;20045;-83
2023/07/17 01:52:48;;;;;;;4.35;2.08;;;;;;;;;;4995627;28;20048;-83
2023/07/17 01:55:15;;;;;;;6.03;1.92;;;;;;;;;;5007245;28;20372;-83
2023/07/17 01:57:41;;;;;;;6.55;2.15;;;;;;;;;;4996436;28;20100;-83
2023/07/17 02:00:07;;;;;;;4.28;2.13;;;;;;;;;;4977806;28;20398;-83
2023/07/17 02:02:33;;;;;;;5.78;2.22;;;;;;;;;;5008872;28;20041;-83
2023/07/17 02:05:03;;;;;;;5.63;2.28;;;;;;;;;;4976264;28;20028;-83
2023/07/17 02:07:29;;;;;;;6.57;2.47;;;;;;;;;;4995195;28;20083;-83
2023/07/17 02:09:55;;;;;;;5.82;2.25;;;;;;;;;;4981010;28;20136;-83
2023/07/17 02:12:24;;;;;;;4.90;2.13;;;;;;;;;;4998401;28;20395;-83
2023/07/17 02:14:50;;;;;;;6.60;2.30;;;;;;;;;;4993275;28;20495;-83
2023/07/17 02:17:16;;;;;;;4.18;1.90;;;;;;;;;;4972742;28;22245;-83
2023/07/17 02:19:42;;;;;;;4.57;2.05;;;;;;;;;;4991315;28;20081;-83
2023/07/17 02:22:08;;;;;;;5.35;2.25;;;;;;;;;;4977380;28;20421;-83
2023/07/17 02:24:34;;;;;;;7.88;2.40;;;;;;;;;;4998710;28;20044;-83
2023/07/17 02:27:01;;;;;;;6.20;2.20;;;;;;;;;;4999308;28;20142;-83
2023/07/17 02:29:28;;;;;;;4.15;1.83;;;;;;;;;;5029758;28;20110;-83
2023/07/17 02:31:54;;;;;;;3.50;1.83;;;;;;;;;;4979615;28;20039;-83
2023/07/17 02:34:20;;;;;;;5.95;1.95;;;;;;;;;;4991427;28;20064;-82
2023/07/17 02:36:49;;;;;;;4.47;2.25;;;;;;;;;;4982631;28;20076;-83
2023/07/17 02:39:15;;;;;;;5.45;2.00;;;;;;;;;;4989645;28;20051;-83
2023/07/17 02:41:41;;;;;;;4.35;1.98;;;;;;;;;;5009990;28;20403;-83
2023/07/17 02:44:07;;;;;;;5.40;2.03;;;;;;;;;;5024496;28;20503;-83
2023/07/17 02:46:34;;;;;;;5.22;2.60;;;;;;;;;;5015467;28;20111;-83
2023/07/17 02:49:00;;;;;;;5.55;1.80;;;;;;;;;;4993278;28;20041;-83
2023/07/17 02:51:26;;;;;;;5.47;2.22;;;;;;;;;;4994080;28;20041;-83
2023/07/17 02:53:52;;;;;;;8.85;2.38;;;;;;;;;;4982951;28;20032;-83
2023/07/17 02:56:18;;;;;;;6.00;2.10;;;;;;;;;;4991028;28;20128;-83
2023/07/17 02:58:48;;;;;;;9.80;2.10;;;;;;;;;;4996574;28;20044;-83
2023/07/17 03:01:14;;;;;;;6.38;2.40;;;;;;;;;;5006804;28;20163;-83
2023/07/17 03:03:40;;;;;;;5.10;1.92;;;;;;;;;;5027073;28;20147;-83
2023/07/17 03:06:06;;;;;;;5.25;2.05;;;;;;;;;;5006278;28;20091;-83
2023/07/17 03:08:32;;;;;;;5.13;1.95;;;;;;;;;;5008768;28;20056;-83
2023/07/17 03:11:03;;;;;;;6.32;2.80;;;;;;;;;;5005499;28;20118;-83
2023/07/17 03:13:29;;;;;;;4.40;2.28;;;;;;;;;;4997649;28;20102;-83
2023/07/17 03:15:58;;;;;;;6.63;2.40;;;;;;;;;;5007567;28;20330;-83
2023/07/17 03:18:27;;;;;;;8.60;2.72;;;;;;;;;;4982189;28;20072;-83
2023/07/17 03:20:56;;;;;;;7.65;2.35;;;;;;;;;;4994224;28;20037;-83
2023/07/17 03:23:23;;;;;;;8.15;2.35;;;;;;;;;;4978261;28;20114;-83
2023/07/17 03:25:49;;;;;;;6.60;2.40;;;;;;;;;;4995667;28;21577;-83
2023/07/17 03:28:15;;;;;;;9.35;2.58;;;;;;;;;;4969594;28;20077;-83
2023/07/17 03:30:41;;;;;;;4.45;2.13;;;;;;;;;;5001489;28;20049;-83
2023/07/17 03:33:07;;;;;;;5.57;2.50;;;;;;;;;;4998028;28;20037;-83
2023/07/17 03:35:36;;;;;;;10.00;2.65;;;;;;;;;;4987582;28;20072;-83
2023/07/17 03:38:03;;;;;;;6.13;2.53;;;;;;;;;;5011065;28;20056;-83
2023/07/17 03:40:29;;;;;;;6.80;2.40;;;;;;;;;;5018380;28;20045;-83
2023/07/17 03:42:55;;;;;;;6.95;2.22;;;;;;;;;;4987898;28;20084;-83
2023/07/17 03:45:22;;;;;;;9.38;2.85;;;;;;;;;;4997509;28;20053;-83
2023/07/17 03:47:50;;;;;;;7.88;2.53;;;;;;;;;;4997640;28;20559;-83
2023/07/17 03:50:16;;;;;;;8.27;2.22;;;;;;;;;;4997305;28;21124;-83
2023/07/17 03:52:42;;;;;;;9.48;3.25;;;;;;;;;;5014962;28;20392;-83
2023/07/17 03:55:09;;;;;;;7.55;2.63;;;;;;;;;;4995702;28;20132;-83
2023/07/17 03:57:35;;;;;;;11.00;2.50;;;;;;;;;;4997821;28;20048;-83
2023/07/17 04:00:01;;;;;;;7.85;2.60;;;;;;;;;;4980055;28;20045;-82
2023/07/17 04:02:27;;;;;;;6.75;2.75;;;;;;;;;;5015657;28;20040;-82
2023/07/17 04:04:56;;;;;;;7.80;2.85;;;;;;;;;;5015376;28;20029;-83
2023/07/17 04:07:22;;;;;;;7.40;2.95;;;;;;;;;;5012469;28;20038;-82
2023/07/17 04:09:48;;;;;;;6.47;2.55;;;;;;;;;;5014201;28;20044;-82
2023/07/17 04:12:14;;;;;;;6.35;2.63;;;;;;;;;;4995171;28;20033;-83
2023/07/17 04:14:40;;;;;;;6.55;2.95;;;;;;;;;;4996208;28;20048;-83
2023/07/17 04:17:06;;;;;;;6.40;2.92;;;;;;;;;;4991166;28;20064;-83
2023/07/17 04:19:32;;;;;;;5.65;2.95;;;;;;;;;;5016535;28;20076;-82
2023/07/17 04:21:58;;;;;;;6.50;2.67;;;;;;;;;;5017259;28;20558;-82
2023/07/17 04:24:24;;;;;;;7.30;2.90;;;;;;;;;;5013976;28;20041;-82
2023/07/17 04:26:52;;;;;;;8.65;2.60;;;;;;;;;;5021352;28;20135;-82
2023/07/17 04:29:19;;;;;;;8.23;3.50;;;;;;;;;;4991914;28;20663;-82
2023/07/17 04:31:45;;;;;;;7.72;3.08;;;;;;;;;;5011265;28;20045;-82
2023/07/17 04:34:11;;;;;;;9.07;3.70;;;;;;;;;;4994420;28;20045;-83
2023/07/17 04:36:38;;;;;;;7.55;3.20;;;;;;;;;;4997185;28;20567;-83
2023/07/17 04:39:04;;;;;;;9.13;3.30;;;;;;;;;;4994214;28;20388;-82
2023/07/17 04:41:31;;;;;;;8.60;3.20;;;;;;;;;;4979926;28;20033;-83
2023/07/17 04:43:57;;;;;;;6.07;3.30;;;;;;;;;;4981716;28;20438;-82
2023/07/17 04:46:23;;;;;;;7.60;3.63;;;;;;;;;;4990896;28;20044;-83
2023/07/17 04:48:49;;;;;;;6.15;3.20;;;;;;;;;;5010046;28;20048;-83
2023/07/17 04:51:15;;;;;;;8.32;2.83;;;;;;;;;;4990398;28;20041;-83
2023/07/17 04:53:41;;;;;;;6.93;3.58;;;;;;;;;;5011088;28;20076;-83
2023/07/17 04:56:07;;;;;;;5.38;3.05;;;;;;;;;;4991236;28;20186;-83
2023/07/17 04:58:33;;;;;;;7.25;3.75;;;;;;;;;;4996015;28;20072;-83
2023/07/17 05:01:00;;;;;;;10.80;3.50;;;;;;;;;;4995071;28;20048;-83
2023/07/17 05:03:27;;;;;;;7.07;3.50;;;;;;;;;;4998173;28;20506;-83
2023/07/17 05:05:53;;;;;;;6.43;2.85;;;;;;;;;;5004125;28;20364;-83
2023/07/17 05:08:19;;;;;;;8.35;3.28;;;;;;;;;;5008339;28;20187;-83
2023/07/17 05:11:02;;;;;;;8.63;3.50;;;;;;;;;;4986793;28;20364;-82
2023/07/17 05:13:28;;;;;;;13.23;3.92;;;;;;;;;;5023638;28;20111;-83
2023/07/17 05:15:54;;;;;;;7.35;3.50;;;;;;;;;;5019011;28;20396;-83
2023/07/17 05:18:20;;;;;;;9.63;3.65;;;;;;;;;;5012734;28;20045;-83
2023/07/17 05:20:50;;;;;;;7.55;3.60;;;;;;;;;;5011974;28;20553;-83
2023/07/17 05:23:16;;;;;;;8.85;3.97;;;;;;;;;;5006921;28;20455;-83
2023/07/17 05:25:52;;;;;;;7.97;3.90;;;;;;;;;;5011893;28;20509;-83
2023/07/17 05:28:18;;;;;;;7.18;4.03;;;;;;;;;;5005946;28;20052;-82
2023/07/17 05:30:44;;;;;;;4.45;3.10;;;;;;;;;;4998143;28;20170;-83
2023/07/17 05:33:10;;;;;;;8.43;3.80;;;;;;;;;;4992097;28;20057;-83
2023/07/17 05:35:36;;;;;;;8.25;3.63;;;;;;;;;;4981360;28;20036;-83
2023/07/17 05:38:03;;;;;;;7.78;3.67;;;;;;;;;;5008800;28;20041;-83
2023/07/17 05:40:29;;;;;;;8.93;3.95;;;;;;;;;;4997208;28;20403;-83
2023/07/17 05:42:58;;;;;;;9.23;4.10;;;;;;;;;;4993570;28;20091;-83
2023/07/17 05:45:24;;;;;;;8.90;4.53;;;;;;;;;;4996953;28;20450;-84
2023/07/17 05:47:50;;;;;;;8.00;3.78;;;;;;;;;;5028702;28;20403;-83
2023/07/17 05:50:16;;;;;;;10.18;4.20;;;;;;;;;;4992046;28;21478;-83
2023/07/17 05:52:42;;;;;;;8.10;3.47;;;;;;;;;;5010189;28;20045;-83
2023/07/17 05:55:08;;;;;;;7.43;3.67;;;;;;;;;;4991238;28;20079;-83
2023/07/17 05:57:34;;;;;;;8.68;4.00;;;;;;;;;;5013031;28;20364;-82
2023/07/17 06:00:00;;;;;;;6.85;3.70;;;;;;;;;;4979933;28;20063;-83
2023/07/17 06:02:26;;;;;;;9.35;4.10;;;;;;;;;;4991384;28;20079;-83
2023/07/17 06:04:52;;;;;;;10.93;3.90;;;;;;;;;;4994373;28;20064;-83
2023/07/17 06:07:19;;;;;;;8.00;4.07;;;;;;;;;;4979366;28;20618;-83
2023/07/17 06:09:45;;;;;;;11.63;3.67;;;;;;;;;;4974571;28;20063;-83
2023/07/17 06:12:11;;;;;;;6.57;3.65;;;;;;;;;;5003138;28;20069;-84
2023/07/17 06:14:37;;;;;;;13.10;5.00;;;;;;;;;;4992407;28;20052;-84
2023/07/17 06:17:03;;;;;;;10.77;4.57;;;;;;;;;;4988055;28;20054;-83
2023/07/17 06:19:30;;;;;;;12.57;4.53;;;;;;;;;;4990576;28;20116;-84
2023/07/17 06:21:58;;;;;;;9.55;4.35;;;;;;;;;;4995723;28;20064;-83
2023/07/17 06:24:24;;;;;;;10.68;4.40;;;;;;;;;;4985137;28;20056;-84
2023/07/17 06:26:50;;;;;;;10.55;4.63;;;;;;;;;;5029145;28;20365;-85
2023/07/17 06:29:22;;;;;;;11.75;5.13;;;;;;;;;;4975859;28;21543;-86
2023/07/17 06:31:48;;;;;;;7.45;3.97;;;;;;;;;;4995846;28;20175;-85
2023/07/17 06:34:14;;;;;;;15.32;4.68;;;;;;;;;;4974105;28;20049;-84
2023/07/17 06:37:08;;;;;;;11.82;5.45;;;;;;;;;;5014093;28;20045;-86
2023/07/17 06:39:34;;;;;;;10.75;4.28;;;;;;;;;;4987809;28;20392;-83
2023/07/17 06:42:01;;;;;;;9.00;4.97;;;;;;;;;;4993905;28;20579;-85
2023/07/17 06:44:27;;;;;;;9.55;4.97;;;;;;;;;;5013206;28;20394;-85
2023/07/17 06:46:53;;;;;;;10.02;4.32;;;;;;;;;;4982516;28;20037;-85
2023/07/17 06:49:19;;;;;;;7.82;4.57;;;;;;;;;;4976811;28;20097;-84
2023/07/17 06:51:45;;;;;;;8.82;4.00;;;;;;;;;;5001636;28;20580;-85
2023/07/17 06:54:11;;;;;;;9.55;4.32;;;;;;;;;;4991944;28;20048;-84
2023/07/17 06:56:37;;;;;;;8.65;4.15;;;;;;;;;;4995862;28;20076;-84
2023/07/17 06:59:04;;;;;;;11.30;3.97;;;;;;;;;;5017873;28;20415;-85
2023/07/17 07:01:30;;;;;;;12.07;4.10;;;;;;;;;;5029949;28;20042;-85
2023/07/17 07:03:56;;;;;;;13.15;4.90;;;;;;;;;;4996799;28;20491;-85
2023/07/17 07:06:22;;;;;;;12.85;4.70;;;;;;;;;;4983379;28;20498;-84
2023/07/17 07:08:48;;;;;;;14.35;4.80;;;;;;;;;;4981336;28;20041;-84
2023/07/17 07:11:14;;;;;;;8.88;4.40;;;;;;;;;;5007113;28;20098;-85
2023/07/17 07:13:42;;;;;;;12.90;4.68;;;;;;;;;;4985515;28;20108;-85
2023/07/17 07:16:08;;;;;;;9.45;5.13;;;;;;;;;;4993608;28;20041;-85
2023/07/17 07:18:34;;;;;;;11.43;4.78;;;;;;;;;;4996837;28;20100;-84
2023/07/17 07:21:04;;;;;;;9.73;4.20;;;;;;;;;;4997305;28;20045;-85
2023/07/17 07:23:30;;;;;;;9.50;4.72;;;;;;;;;;5032635;28;20038;-84
2023/07/17 07:26:31;;;;;;;;;;;;;;;;;;;;;
2023/07/17 07:29:21;;;;;;;11.25;4.38;;;;;;;;;;5014116;28;20061;-85
2023/07/17 07:31:47;;;;;;;7.63;4.63;;;;;;;;;;5014611;28;20479;-84
2023/07/17 07:34:13;;;;;;;11.75;4.18;;;;;;;;;;4993130;28;20033;-84
2023/07/17 07:36:39;;;;;;;15.45;5.13;;;;;;;;;;4981617;28;20041;-85
2023/07/17 07:39:05;;;;;;;9.07;5.15;;;;;;;;;;4987958;28;20033;-84
2023/07/17 07:41:36;;;;;;;9.50;4.57;;;;;;;;;;5011571;28;20095;-85
2023/07/17 07:44:02;;;;;;;13.18;5.50;;;;;;;;;;4980811;28;20040;-84
2023/07/17 07:46:29;;;;;;;8.55;4.55;;;;;;;;;;5000790;28;20084;-84
2023/07/17 07:48:55;;;;;;;14.52;5.28;;;;;;;;;;4981303;28;20041;-84
2023/07/17 07:51:21;;;;;;;13.10;4.90;;;;;;;;;;4992435;28;20051;-84
2023/07/17 07:53:47;;;;;;;10.73;4.72;;;;;;;;;;4988965;28;20102;-85
2023/07/17 07:56:13;;;;;;;9.80;5.38;;;;;;;;;;5013627;28;20628;-85
2023/07/17 07:58:39;;;;;;;9.07;4.68;;;;;;;;;;4984278;28;20041;-84
2023/07/17 08:01:05;;;;;;;9.15;5.05;;;;;;;;;;5009417;28;20039;-85
2023/07/17 08:03:31;;;;;;;9.07;4.32;;;;;;;;;;4978450;28;20043;-85
2023/07/17 08:05:57;;;;;;;10.20;4.38;;;;;;;;;;4992367;28;20036;-84
2023/07/17 08:08:23;;;;;;;9.75;3.88;;;;;;;;;;4978491;28;20119;-85
2023/07/17 08:10:53;;;;;;;11.15;4.30;;;;;;;;;;4996124;28;20124;-85
2023/07/17 08:13:19;;;;;;;8.63;4.15;;;;;;;;;;5006314;28;20075;-85
2023/07/17 08:15:45;;;;;;;9.60;4.40;;;;;;;;;;4997542;28;20519;-85
2023/07/17 08:18:12;;;;;;;7.78;4.13;;;;;;;;;;4992484;28;20199;-85
2023/07/17 08:20:38;;;;;;;11.02;4.28;;;;;;;;;;4993744;28;20041;-85
2023/07/17 08:23:04;;;;;;;7.60;4.22;;;;;;;;;;5004886;28;20045;-85
2023/07/17 08:25:30;;;;;;;8.00;3.42;;;;;;;;;;4994125;28;20140;-84
2023/07/17 08:27:59;;;;;;;9.20;3.80;;;;;;;;;;4976993;28;20094;-85
2023/07/17 08:30:25;;;;;;;7.75;4.05;;;;;;;;;;5007327;28;20392;-84
2023/07/17 08:32:51;;;;;;;11.43;4.00;;;;;;;;;;4972048;28;20127;-84
2023/07/17 08:35:17;;;;;;;10.40;4.25;;;;;;;;;;5003080;28;20094;-85
2023/07/17 08:37:43;;;;;;;9.15;4.22;;;;;;;;;;5007941;28;20037;-85
2023/07/17 08:40:10;;;;;;;11.27;4.32;;;;;;;;;;4975271;28;20052;-85
2023/07/17 08:42:36;;;;;;;7.18;3.72;;;;;;;;;;4979810;28;20072;-84
2023/07/17 08:45:03;;;;;;;8.45;3.92;;;;;;;;;;5006781;28;20128;-84
2023/07/17 08:47:29;;;;;;;8.77;4.10;;;;;;;;;;4981593;28;20045;-84
2023/07/17 08:49:58;;;;;;;9.23;4.20;;;;;;;;;;4976480;28;20583;-84
2023/07/17 08:52:26;;;;;;;10.02;4.13;;;;;;;;;;5012473;28;20107;-84
2023/07/17 08:54:52;;;;;;;7.97;3.38;;;;;;;;;;4981048;28;20055;-84
2023/07/17 08:57:18;;;;;;;8.25;3.20;;;;;;;;;;4993849;28;20041;-84
2023/07/17 08:59:44;;;;;;;8.77;3.75;;;;;;;;;;5010994;28;20048;-84
2023/07/17 09:02:10;;;;;;;6.45;3.45;;;;;;;;;;4993180;28;20042;-84
2023/07/17 09:04:39;;;;;;;10.18;3.78;;;;;;;;;;4995743;28;20052;-85
2023/07/17 09:14:10;;;;;;;10.15;4.25;;;;;;;;;;4964816;28;23730;-85
2023/07/17 09:16:36;;;;;;;6.57;4.05;;;;;;;;;;4971143;28;20038;-85
2023/07/17 09:19:02;;;;;;;18.02;5.00;;;;;;;;;;4951193;28;20074;-85
2023/07/17 09:21:31;;;;;;;13.98;5.28;;;;;;;;;;4944000;28;20048;-85
2023/07/17 09:23:57;;;;;;;12.43;4.60;;;;;;;;;;4951142;28;20041;-85
2023/07/17 09:26:24;;;;;;;14.82;5.45;;;;;;;;;;4955582;28;20081;-85
2023/07/17 09:28:53;;;;;;;17.20;5.13;;;;;;;;;;4973953;28;20037;-85
2023/07/17 09:31:25;;;;;;;12.07;5.03;;;;;;;;;;4950693;28;20054;-84
2023/07/17 09:33:52;;;;;;;16.92;6.30;;;;;;;;;;4973783;28;20065;-85
2023/07/17 09:39:38;;;;;;;11.50;5.55;;;;;;;;;;4941181;28;20064;-85
2023/07/17 09:42:04;;;;;;;11.38;5.25;;;;;;;;;;4970494;28;20132;-85
2023/07/17 09:44:33;;;;;;;8.35;4.82;;;;;;;;;;4982789;28;20051;-85
2023/07/17 09:46:59;;;;;;;6.72;3.70;;;;;;;;;;4985227;28;20051;-85
2023/07/17 09:49:25;;;;;;;9.30;4.47;;;;;;;;;;5000368;28;20072;-85
2023/07/17 09:51:51;;;;;;;12.55;3.92;;;;;;;;;;4981082;28;20037;-85
2023/07/17 10:11:39;;;;;;;;;;;;;;;;;;;;;
2023/07/17 10:14:31;;;;;;;7.03;3.20;;;;;;;;;;4850438;29;20052;-86
2023/07/17 10:17:59;;;;;;;5.82;3.20;;;;;;;;;;4881586;29;20484;-86
2023/07/17 10:21:00;;;;;;;5.70;2.42;;;;;;;;;;4934995;28;20556;-86
2023/07/17 10:24:23;;;;;;;;;;;;;;;;;;;;;
2023/07/17 10:30:28;;;;;;;7.25;2.83;;;;;;;;;;4899189;28;20075;-86
2023/07/17 10:33:22;;;;;;;6.15;2.63;;;;;;;;;;4917758;28;20046;-85
2023/07/17 10:36:30;;;;;;;;;;;;;;;;;;;;;
2023/07/17 10:39:42;;;;;;;4.40;2.72;;;;;;;;;;4975430;28;20114;-86
2023/07/17 10:42:47;;;;;;;7.80;3.25;;;;;;;;;;4957677;28;20045;-86
2023/07/17 10:55:32;;;;;;;4.65;2.20;;;;;;;;;;4909905;28;20050;-85
2023/07/17 11:01:20;;;;;;;4.97;2.70;;;;;;;;;;4933759;28;20062;-85
2023/07/17 11:14:25;;;;;;;5.45;3.03;;;;;;;;;;4867737;28;21053;-84
2023/07/17 11:16:55;;;;;;;3.70;2.55;;;;;;;;;;4939446;28;20070;-85
2023/07/17 11:19:26;;;;;;;5.47;2.42;;;;;;;;;;4945524;28;20570;-84
2023/07/17 11:21:54;;;;;;;6.65;2.40;;;;;;;;;;4974483;28;20045;-84
2023/07/17 11:24:26;;;;;;;6.22;2.90;;;;;;;;;;4969618;28;20040;-84
2023/07/17 11:29:46;;;;;;;4.93;2.17;;;;;;;;;;4989016;28;20510;-84
2023/07/17 11:32:20;;;;;;;4.72;2.20;;;;;;;;;;4971580;28;20048;-84
2023/07/17 11:35:15;;;;;;;;;;;;;;;;;;;;;
2023/07/17 11:37:52;;;;;;;5.22;2.35;;;;;;;;;;5011511;28;20049;-85
2023/07/17 11:40:27;;;;;;;5.65;2.30;;;;;;;;;;4975186;28;20448;-85
2023/07/17 11:43:04;;;;;;;4.50;2.00;;;;;;;;;;4998467;28;20114;-85
2023/07/17 11:46:03;;;;;;;;;;;;;;;;;;;;;
2023/07/17 11:48:35;;;;;;;4.18;2.00;;;;;;;;;;5009456;28;20044;-85
2023/07/17 11:51:08;;;;;;;3.65;2.05;;;;;;;;;;4965219;28;20029;-84
2023/07/17 11:53:46;;;;;;;3.83;1.88;;;;;;;;;;4994757;28;20507;-84
2023/07/17 11:56:29;;;;;;;;;;;;;;;;;;;;;
2023/07/17 11:59:02;;;;;;;7.10;2.20;;;;;;;;;;5011688;28;20037;-85
2023/07/17 12:01:48;;;;;;;5.22;1.85;;;;;;;;;;5004235;28;20080;-84
2023/07/17 12:04:26;;;;;;;5.68;1.95;;;;;;;;;;5006736;28;20107;-84
2023/07/17 12:07:00;;;;;;;2.70;2.13;;;;;;;;;;4976317;28;20072;-84
2023/07/17 12:09:35;;;;;;;4.63;2.05;;;;;;;;;;4982499;28;20042;-84
2023/07/17 12:12:07;;;;;;;3.80;1.70;;;;;;;;;;5003958;28;20085;-84
2023/07/17 12:14:47;;;;;;;4.78;2.20;;;;;;;;;;4992328;28;20600;-85
2023/07/17 12:17:21;;;;;;;8.50;1.80;;;;;;;;;;4972410;28;20969;-84
2023/07/17 12:19:56;;;;;;;6.10;2.35;;;;;;;;;;4991027;28;20505;-85
2023/07/17 12:22:29;;;;;;;5.28;2.00;;;;;;;;;;4981023;28;20041;-84
2023/07/17 12:25:08;;;;;;;3.75;2.08;;;;;;;;;;4991187;28;20052;-84
2023/07/17 12:27:37;;;;;;;2.47;2.10;;;;;;;;;;4992949;28;20053;-84
2023/07/17 12:30:29;;;;;;;;;;;;;;;;;;;;;
2023/07/17 12:33:06;;;;;;;4.95;2.17;;;;;;;;;;4973856;28;20641;-84
2023/07/17 12:35:35;;;;;;;6.15;2.40;;;;;;;;;;4952800;28;20041;-84
2023/07/17 12:38:11;;;;;;;5.07;2.20;;;;;;;;;;4969237;28;20132;-84
2023/07/17 12:40:54;;;;;;;;;;;;;;;;;;;;;
2023/07/17 12:43:22;;;;;;;3.28;2.20;;;;;;;;;;4944451;28;20058;-83
2023/07/17 12:45:51;;;;;;;4.13;2.35;;;;;;;;;;4936526;28;20756;-84
2023/07/17 12:48:29;;;;;;;3.83;2.25;;;;;;;;;;4962550;28;20054;-84
2023/07/17 12:51:29;;;;;;;;;;;;;;;;;;;;;
2023/07/17 12:57:52;;;;;;;3.95;1.90;;;;;;;;;;4852457;29;20223;-85
2023/07/17 13:00:42;;;;;;;5.13;2.33;;;;;;;;;;4849526;29;20064;-85
2023/07/17 13:03:29;;;;;;;;;;;;;;;;;;;;;
2023/07/17 13:09:03;;;;;;;5.95;2.47;;;;;;;;;;4899965;28;20137;-84
2023/07/17 13:11:33;;;;;;;5.53;2.75;;;;;;;;;;4952383;28;20143;-84
2023/07/17 13:14:12;;;;;;;;;;;;;;;;;;;;;
2023/07/17 13:24:01;;;;;;;;;;;;;;;;;;;;;
2023/07/17 13:27:04;;;;;;;3.28;1.15;;;;;;;;;;4943364;28;20070;-85
2023/07/17 13:29:53;;;;;;;4.05;1.60;;;;;;;;;;4893034;28;20059;-84
2023/07/17 13:32:34;;;;;;;3.22;1.92;;;;;;;;;;4915401;28;20533;-85
2023/07/17 13:35:28;;;;;;;4.35;2.33;;;;;;;;;;4892789;28;20059;-85
2023/07/17 13:44:36;;;;;;;3.90;2.00;;;;;;;;;;4914637;28;20125;-85
2023/07/17 13:47:03;;;;;;;4.50;2.17;;;;;;;;;;4913125;28;20058;-85
2023/07/17 13:49:36;;;;;;;4.88;1.90;;;;;;;;;;4956295;28;20054;-84
2023/07/17 13:52:05;;;;;;;2.85;2.03;;;;;;;;;;4918919;28;20065;-84
2023/07/17 13:54:39;;;;;;;2.78;1.70;;;;;;;;;;4978223;28;20053;-84
2023/07/17 13:57:06;;;;;;;4.35;2.00;;;;;;;;;;4970077;28;20124;-84
2023/07/17 13:59:32;;;;;;;4.28;2.00;;;;;;;;;;4979694;28;20045;-84
2023/07/17 14:02:03;;;;;;;5.85;2.10;;;;;;;;;;4987160;28;20638;-84
2023/07/17 14:04:29;;;;;;;4.55;2.28;;;;;;;;;;4994571;28;20498;-84
2023/07/17 14:06:58;;;;;;;4.95;1.90;;;;;;;;;;4972640;28;20063;-84
2023/07/17 14:09:26;;;;;;;5.75;2.10;;;;;;;;;;4991211;28;20060;-84
2023/07/17 14:12:04;;;;;;;3.45;2.17;;;;;;;;;;4989092;28;20077;-84
2023/07/17 14:14:32;;;;;;;4.68;2.28;;;;;;;;;;4969767;28;20052;-83
2023/07/17 14:17:02;;;;;;;5.40;2.58;;;;;;;;;;4991393;28;20499;-84
2023/07/17 14:19:34;;;;;;;6.13;2.22;;;;;;;;;;4982703;28;20065;-84
2023/07/17 14:22:27;;;;;;;4.90;2.28;;;;;;;;;;4985368;28;20080;-84
2023/07/17 14:25:22;;;;;;;4.15;2.33;;;;;;;;;;4994626;28;20037;-84
2023/07/17 14:28:00;;;;;;;7.15;2.20;;;;;;;;;;4988155;28;20537;-84
2023/07/17 14:30:54;;;;;;;4.97;2.40;;;;;;;;;;4974211;28;20128;-84
2023/07/17 14:36:50;;;;;;;4.80;2.50;;;;;;;;;;5011463;28;20136;-84
2023/07/17 14:46:26;;;;;;;4.68;1.95;;;;;;;;;;4864243;29;19927;-86
2023/07/17 14:49:38;;;;;;;5.95;2.63;;;;;;;;;;4839652;28;20048;-86
2023/07/17 14:53:22;;;;;;;4.90;2.30;;;;;;;;;;4990163;28;20100;-86
2023/07/17 15:01:41;;;;;;;10.85;3.88;;;;;;;;;;5010163;28;20045;-85
2023/07/17 15:04:44;;;;;;;8.05;3.63;;;;;;;;;;4988039;28;20060;-86
2023/07/17 15:07:40;;;;;;;;;;;;;;;;;;;;;
2023/07/17 15:10:15;;;;;;;9.70;4.20;;;;;;;;;;4956585;28;20041;-84
2023/07/17 15:12:50;;;;;;;14.07;4.72;;;;;;;;;;4956401;28;20120;-85
2023/07/17 15:15:17;;;;;;;5.60;2.70;;;;;;;;;;4960613;28;21685;-84
2023/07/17 15:17:54;;;;;;;5.50;3.20;;;;;;;;;;4982309;28;20042;-84
2023/07/17 15:20:30;;;;;;;;;;;;;;;;;;;;;
2023/07/17 15:23:07;;;;;;;12.15;4.28;;;;;;;;;;4962542;28;20049;-84
2023/07/17 15:25:37;;;;;;;8.45;3.70;;;;;;;;;;5001091;28;20118;-84
2023/07/17 16:17:32;;;;;;;9.68;3.92;;;;;;;;;;4998424;23;20053;-87
2023/07/17 16:20:06;;;;;;;10.38;3.72;;;;;;;;;;4855395;29;20115;-85
2023/07/17 16:22:41;;;;;;;7.13;3.33;;;;;;;;;;4868815;29;20581;-86
2023/07/17 16:25:15;;;;;;;8.10;4.38;;;;;;;;;;4818853;29;20315;-86
2023/07/17 16:28:53;;;;;;;;;;;;;;;;;;;;;
2023/07/17 16:31:01;;;;;;;7.53;3.97;;;;;;;;;;4847286;29;20048;-86
2023/07/17 16:33:39;;;;;;;8.82;3.75;;;;;;;;;;4842936;29;20056;-85
2023/07/17 16:36:21;;;;;;;;;;;;;;;;;;;;;
2023/07/17 16:41:55;;;;;;;5.47;3.17;;;;;;;;;;4801737;29;20050;-87
2023/07/17 16:44:34;;;;;;;5.07;2.92;;;;;;;;;;4797704;29;20062;-85
2023/07/17 16:47:03;;;;;;;6.00;2.60;;;;;;;;;;4797604;29;20121;-85
2023/07/17 16:49:29;;;;;;;7.22;3.05;;;;;;;;;;4823558;29;20048;-85
2023/07/17 16:51:58;;;;;;;8.13;3.35;;;;;;;;;;4823546;29;20040;-84
2023/07/17 16:54:24;;;;;;;8.50;3.22;;;;;;;;;;4834296;29;20647;-85
2023/07/17 16:56:53;;;;;;;3.90;2.38;;;;;;;;;;4840958;29;20049;-84
2023/07/17 16:59:19;;;;;;;3.80;2.60;;;;;;;;;;4867375;29;20081;-85
2023/07/17 17:01:45;;;;;;;5.85;2.95;;;;;;;;;;4853982;29;20037;-84
2023/07/17 17:04:16;;;;;;;6.45;3.00;;;;;;;;;;4830497;29;20048;-83
2023/07/17 17:09:52;;;;;;;;;;;;;;;;;;;;;
2023/07/17 17:12:41;;;;;;;5.45;2.70;;;;;;;;;;4869598;29;20063;-84
2023/07/17 17:15:10;;;;;;;5.82;2.72;;;;;;;;;;4864491;29;20053;-83
2023/07/17 17:17:36;;;;;;;4.20;2.53;;;;;;;;;;4856584;29;20509;-83
2023/07/17 17:20:20;;;;;;;5.68;2.92;;;;;;;;;;4848934;29;20073;-84
2023/07/17 17:23:02;;;;;;;;;;;;;;;;;;;;;
2023/07/17 17:25:46;;;;;;;4.03;2.50;;;;;;;;;;4871033;29;20517;-84
2023/07/17 17:28:16;;;;;;;6.15;2.97;;;;;;;;;;4840859;29;20048;-84
2023/07/17 17:30:51;;;;;;;7.03;3.28;;;;;;;;;;4855172;29;20465;-83
2023/07/17 17:33:20;;;;;;;6.03;2.97;;;;;;;;;;4844604;29;22628;-83
2023/07/17 17:35:53;;;;;;;8.15;3.13;;;;;;;;;;4851058;29;20061;-84
2023/07/17 17:38:44;;;;;;;8.55;3.08;;;;;;;;;;4854280;29;20167;-84
2023/07/17 17:41:13;;;;;;;6.63;3.53;;;;;;;;;;4854908;29;20056;-84
2023/07/17 17:46:49;;;;;;;8.98;3.30;;;;;;;;;;4860317;29;20049;-84
2023/07/17 17:49:18;;;;;;;8.90;3.45;;;;;;;;;;4854271;29;20053;-84
2023/07/17 17:51:54;;;;;;;7.85;3.17;;;;;;;;;;4886591;29;20055;-84
2023/07/17 17:54:23;;;;;;;6.78;3.28;;;;;;;;;;4846451;29;20049;-83